createdAt,value
2023-01-27T00:02:56.926Z,20.13
2023-01-27T00:07:58.883Z,20.00
2023-01-27T00:13:19.088Z,22.75
2023-01-27T00:18:23.033Z,19.90
2023-01-27T00:23:45.231Z,16.98
2023-01-27T00:28:47.877Z,21.00
2023-01-27T00:33:49.637Z,20.33
2023-01-27T00:38:51.342Z,19.20
2023-01-27T00:43:54.075Z,24.25
2023-01-27T00:48:56.116Z,18.38
2023-01-27T00:53:59.396Z,21.05
2023-01-27T00:59:01.122Z,19.02
2023-01-27T01:04:02.953Z,19.25
2023-01-27T01:09:04.966Z,20.17
2023-01-27T01:14:06.632Z,20.65
2023-01-27T01:19:08.294Z,19.08
2023-01-27T01:24:10.072Z,17.63
2023-01-27T01:29:11.831Z,18.88
2023-01-27T01:34:13.506Z,20.05
2023-01-27T01:39:15.164Z,19.60
2023-01-27T01:44:28.789Z,18.55
2023-01-27T01:49:35.254Z,17.98
2023-01-27T01:54:51.385Z,17.80
2023-01-27T02:00:09.695Z,20.40
2023-01-27T02:05:19.510Z,20.65
2023-01-27T02:10:23.633Z,19.10
2023-01-27T02:15:25.490Z,14.30
2023-01-27T02:20:30.070Z,17.38
2023-01-27T02:25:34.769Z,19.52
2023-01-27T02:30:36.563Z,16.73
2023-01-27T02:35:44.306Z,17.02
2023-01-27T02:40:50.934Z,15.00
2023-01-27T02:50:54.039Z,14.80
2023-01-27T02:55:55.740Z,14.38
2023-01-27T03:00:57.381Z,14.52
2023-01-27T03:05:59.035Z,14.65
2023-01-27T03:11:01.104Z,13.00
2023-01-27T03:16:23.072Z,15.88
2023-01-27T03:21:24.811Z,12.95
2023-01-27T03:26:26.498Z,13.68
2023-01-27T03:31:28.186Z,13.55
2023-01-27T03:36:48.790Z,11.93
2023-01-27T03:42:08.668Z,13.52
2023-01-27T03:47:11.264Z,11.68
2023-01-27T03:52:12.894Z,11.82
2023-01-27T03:57:14.633Z,13.90
2023-01-27T04:02:34.965Z,12.52
2023-01-27T04:07:36.780Z,14.43
2023-01-27T04:12:38.537Z,14.55
2023-01-27T04:17:41.870Z,10.77
2023-01-27T04:22:43.532Z,14.02
2023-01-27T04:27:45.208Z,12.32
2023-01-27T04:32:46.828Z,12.13
2023-01-27T04:37:48.896Z,13.35
2023-01-27T04:42:54.525Z,13.82
2023-01-27T04:47:56.265Z,13.30
2023-01-27T04:52:57.965Z,11.68
2023-01-27T04:57:59.656Z,11.75
2023-01-27T05:03:01.436Z,12.38
2023-01-27T05:08:07.798Z,13.32
2023-01-27T05:13:11.559Z,9.88
2023-01-27T05:18:22.142Z,16.02
2023-01-27T05:23:38.936Z,13.23
2023-01-27T05:28:43.486Z,9.45
2023-01-27T05:33:48.659Z,11.55
2023-01-27T05:38:54.890Z,9.43
2023-01-27T05:43:56.844Z,12.50
2023-01-27T05:49:05.318Z,12.57
2023-01-27T05:54:07.969Z,11.07
2023-01-27T05:59:10.569Z,11.00
2023-01-27T06:04:12.399Z,10.75
2023-01-27T06:09:14.153Z,12.65
2023-01-27T06:14:15.838Z,13.48
2023-01-27T06:19:17.474Z,13.98
2023-01-27T06:24:19.487Z,14.23
2023-01-27T06:29:22.243Z,15.25
2023-01-27T06:34:23.936Z,11.80
2023-01-27T06:39:25.566Z,12.00
2023-01-27T06:44:27.328Z,12.38
2023-01-27T06:49:29.002Z,14.27
2023-01-27T06:54:30.633Z,12.43
2023-01-27T06:59:32.306Z,12.00
2023-01-27T07:04:34.024Z,13.45
2023-01-27T07:09:51.498Z,12.07
2023-01-27T07:14:53.827Z,11.88
2023-01-27T07:19:55.557Z,11.40
2023-01-27T07:24:57.245Z,9.93
2023-01-27T07:29:58.926Z,11.10
2023-01-27T07:35:00.627Z,10.38
2023-01-27T07:40:02.735Z,12.95
2023-01-27T07:45:04.711Z,14.20
2023-01-27T07:50:07.003Z,11.98
2023-01-27T07:55:09.093Z,13.10
2023-01-27T08:00:15.819Z,10.25
2023-01-27T08:05:17.593Z,10.68
2023-01-27T08:10:19.646Z,9.70
2023-01-27T08:15:22.041Z,9.98
2023-01-27T08:20:25.516Z,12.93
2023-01-27T08:25:27.453Z,7.47
2023-01-27T08:30:29.210Z,8.25
2023-01-27T08:35:31.038Z,10.13
2023-01-27T08:40:32.721Z,11.55
2023-01-27T08:45:35.653Z,10.77
2023-01-27T08:50:37.364Z,10.95
2023-01-27T08:55:39.070Z,7.65
2023-01-27T09:00:40.786Z,10.30
2023-01-27T09:05:42.706Z,8.90
2023-01-27T09:10:44.610Z,8.88
2023-01-27T09:15:46.499Z,8.60
2023-01-27T09:20:48.249Z,10.45
2023-01-27T09:25:50.405Z,7.47
2023-01-27T09:31:54.876Z,7.57
2023-01-27T09:37:02.302Z,8.23
2023-01-27T09:42:32.332Z,7.55
2023-01-27T09:47:43.252Z,10.68
2023-01-27T09:53:18.297Z,9.80
2023-01-27T09:58:38.902Z,6.95
2023-01-27T10:03:59.419Z,10.07
2023-01-27T10:09:04.071Z,7.57
2023-01-27T10:14:24.101Z,10.95
2023-01-27T10:19:43.852Z,10.85
2023-01-27T10:25:02.783Z,11.60
2023-01-27T10:30:35.691Z,8.90
2023-01-27T10:36:03.506Z,9.10
2023-01-27T10:41:29.256Z,9.23
2023-01-27T10:46:45.681Z,7.45
2023-01-27T10:51:57.737Z,9.18
2023-01-27T10:57:16.541Z,10.10
2023-01-27T11:02:29.465Z,9.90
2023-01-27T11:07:39.430Z,8.80
2023-01-27T11:12:47.556Z,8.98
2023-01-27T11:17:57.531Z,11.32
2023-01-27T11:23:05.590Z,8.65
2023-01-27T11:28:35.302Z,9.50
2023-01-27T11:33:48.504Z,7.45
2023-01-27T11:38:50.327Z,7.05
2023-01-27T11:43:52.221Z,8.50
2023-01-27T11:48:58.165Z,7.18
2023-01-27T11:54:16.083Z,8.30
2023-01-27T11:59:24.701Z,7.30
2023-01-27T12:04:50.041Z,7.50
2023-01-27T12:09:51.882Z,8.20
2023-01-27T12:14:55.209Z,7.43
2023-01-27T12:20:02.080Z,8.20
2023-01-27T12:25:08.360Z,8.80
2023-01-27T12:30:22.330Z,7.95
2023-01-27T12:35:29.179Z,7.70
2023-01-27T12:40:33.848Z,7.40
2023-01-27T12:45:37.732Z,6.88
2023-01-27T12:50:51.199Z,8.40
2023-01-27T12:56:00.162Z,7.70
2023-01-27T13:01:06.993Z,9.48
2023-01-27T13:06:09.502Z,7.88
2023-01-27T13:11:11.869Z,7.32
2023-01-27T13:16:29.668Z,6.97
2023-01-27T13:21:38.808Z,9.15
2023-01-27T13:26:41.798Z,10.57
2023-01-27T13:31:54.047Z,6.65
2023-01-27T13:37:08.077Z,10.55
2023-01-27T13:42:22.303Z,8.10
2023-01-27T13:47:29.262Z,9.27
2023-01-27T13:52:30.952Z,8.57
2023-01-27T13:57:43.279Z,9.00
2023-01-27T14:03:13.943Z,8.90
2023-01-27T14:08:37.373Z,10.63
2023-01-27T14:13:58.642Z,10.68
2023-01-27T14:19:32.302Z,11.60
2023-01-27T14:24:47.640Z,12.63
2023-01-27T14:30:24.426Z,13.55
2023-01-27T14:36:00.144Z,13.80
2023-01-27T14:41:18.815Z,11.60
2023-01-27T14:46:42.209Z,12.05
2023-01-27T14:52:02.668Z,15.10
2023-01-27T14:57:13.279Z,11.48
2023-01-27T15:02:33.177Z,13.57
2023-01-27T15:07:48.545Z,17.00
2023-01-27T15:13:07.971Z,15.55
2023-01-27T15:18:09.537Z,13.30
2023-01-27T15:23:26.387Z,13.52
2023-01-27T15:28:30.864Z,12.43
2023-01-27T15:33:44.726Z,11.77
2023-01-27T15:38:59.228Z,11.93
2023-01-27T15:44:16.118Z,13.50
2023-01-27T15:49:28.604Z,12.05
2023-01-27T15:54:33.647Z,13.23
2023-01-27T15:59:58.436Z,14.27
2023-01-27T16:05:03.943Z,13.87
2023-01-27T16:10:13.360Z,15.35
2023-01-27T16:15:15.309Z,14.93
2023-01-27T16:20:27.660Z,16.25
2023-01-27T16:25:39.355Z,16.95
2023-01-27T16:30:49.166Z,13.88
2023-01-27T16:35:58.843Z,13.82
2023-01-27T16:41:04.370Z,13.75
2023-01-27T16:46:06.681Z,12.90
2023-01-27T16:51:11.319Z,14.00
2023-01-27T16:56:34.973Z,16.90
2023-01-27T17:01:53.985Z,14.10
2023-01-27T17:07:11.956Z,14.20
2023-01-27T17:12:35.414Z,17.50
2023-01-27T17:17:39.580Z,18.02
2023-01-27T17:22:43.932Z,18.30
2023-01-27T17:27:45.846Z,14.50
2023-01-27T17:32:51.567Z,14.82
2023-01-27T17:38:08.071Z,18.77
2023-01-27T17:49:01.710Z,17.02
2023-01-27T17:54:20.011Z,18.40
2023-01-27T17:59:52.226Z,17.67
2023-01-27T18:05:04.320Z,17.23
2023-01-27T18:10:23.977Z,16.88
2023-01-27T18:15:48.087Z,18.85
2023-01-27T18:20:55.974Z,19.38
2023-01-27T18:26:16.554Z,17.02
2023-01-27T18:31:31.629Z,22.55
2023-01-27T18:36:36.176Z,15.85
2023-01-27T18:41:47.690Z,19.80
2023-01-27T18:47:02.482Z,15.55
2023-01-27T18:52:12.242Z,20.63
2023-01-27T18:57:14.499Z,17.60
2023-01-27T19:02:17.171Z,18.30
2023-01-27T19:07:19.933Z,19.63
2023-01-27T19:12:21.955Z,15.95
2023-01-27T19:17:24.383Z,19.27
2023-01-27T19:22:27.244Z,17.02
2023-01-27T19:27:29.017Z,19.65
2023-01-27T19:32:31.536Z,22.85
2023-01-27T19:37:34.059Z,23.60
2023-01-27T19:42:36.804Z,21.73
2023-01-27T19:47:40.141Z,20.67
2023-01-27T19:52:42.478Z,23.70
2023-01-27T19:57:45.584Z,20.88
2023-01-27T20:02:48.217Z,26.48
2023-01-27T20:07:50.873Z,21.83
2023-01-27T20:13:02.788Z,24.92
2023-01-27T20:18:05.359Z,22.00
2023-01-27T20:23:09.505Z,27.10
2023-01-27T20:28:13.237Z,20.77
2023-01-27T20:33:16.788Z,21.98
2023-01-27T20:38:19.261Z,21.17
2023-01-27T20:43:34.650Z,21.98
2023-01-27T20:48:39.797Z,20.52
2023-01-27T20:53:46.050Z,22.52
2023-01-27T20:58:49.437Z,21.98
2023-01-27T21:03:52.316Z,20.95
2023-01-27T21:08:54.832Z,27.48
2023-01-27T21:13:56.980Z,24.48
2023-01-27T21:18:58.701Z,23.80
2023-01-27T21:24:01.264Z,22.42
2023-01-27T21:29:04.932Z,20.45
2023-01-27T21:34:06.690Z,23.80
2023-01-27T21:39:08.534Z,22.55
2023-01-27T21:44:34.736Z,24.98
2023-01-27T21:49:56.990Z,21.30
2023-01-27T21:54:59.221Z,21.95
2023-01-27T22:00:01.104Z,24.05
2023-01-27T22:05:04.471Z,24.35
2023-01-27T22:10:08.043Z,24.85
2023-01-27T22:15:10.999Z,26.77
2023-01-27T22:20:16.846Z,21.27
2023-01-27T22:25:18.853Z,25.13
2023-01-27T22:30:21.023Z,24.05
2023-01-27T22:35:22.818Z,22.90
2023-01-27T22:40:24.448Z,22.02
2023-01-27T22:45:26.187Z,23.35
2023-01-27T22:50:27.925Z,25.67
2023-01-27T22:55:29.587Z,22.80
2023-01-27T23:00:31.280Z,23.17
2023-01-27T23:05:32.995Z,22.60
2023-01-27T23:10:35.360Z,24.40
2023-01-27T23:15:37.105Z,21.23
2023-01-27T23:20:40.383Z,25.52
2023-01-27T23:25:47.024Z,21.92
2023-01-27T23:35:56.657Z,26.17
2023-01-27T23:41:11.411Z,25.25
2023-01-27T23:46:13.558Z,20.92
2023-01-27T23:51:15.220Z,22.27
2023-01-27T23:56:21.365Z,22.85
